sensor_id;sensor_type;location;lat;lon;timestamp;temperature;humidity
2973;DHT22;1496;51.404;7.232;2024-01-30T00:02:16;8.40;1.00
2973;DHT22;1496;51.404;7.232;2024-01-30T00:04:44;8.50;1.00
2973;DHT22;1496;51.404;7.232;2024-01-30T00:07:09;8.40;1.00
2973;DHT22;1496;51.404;7.232;2024-01-30T00:09:35;8.40;1.00
2973;DHT22;1496;51.404;7.232;2024-01-30T00:12:07;8.30;1.00
2973;DHT22;1496;51.404;7.232;2024-01-30T00:14:32;8.20;1.00
2973;DHT22;1496;51.404;7.232;2024-01-30T00:17:02;8.30;1.00
2973;DHT22;1496;51.404;7.232;2024-01-30T00:19:28;8.30;1.00
2973;DHT22;1496;51.404;7.232;2024-01-30T00:21:53;8.30;1.00
2973;DHT22;1496;51.404;7.232;2024-01-30T00:24:19;8.20;1.00
2973;DHT22;1496;51.404;7.232;2024-01-30T00:26:45;8.20;1.00
2973;DHT22;1496;51.404;7.232;2024-01-30T00:29:10;8.20;1.00
2973;DHT22;1496;51.404;7.232;2024-01-30T00:31:37;8.30;1.00
2973;DHT22;1496;51.404;7.232;2024-01-30T00:34:03;8.20;1.00
2973;DHT22;1496;51.404;7.232;2024-01-30T00:36:28;8.20;1.00
2973;DHT22;1496;51.404;7.232;2024-01-30T00:38:55;8.20;1.00
2973;DHT22;1496;51.404;7.232;2024-01-30T00:41:21;8.10;1.00
2973;DHT22;1496;51.404;7.232;2024-01-30T00:43:46;8.30;1.00
2973;DHT22;1496;51.404;7.232;2024-01-30T00:46:12;8.30;1.00
2973;DHT22;1496;51.404;7.232;2024-01-30T00:48:37;8.30;1.00
2973;DHT22;1496;51.404;7.232;2024-01-30T00:51:03;8.40;1.00
2973;DHT22;1496;51.404;7.232;2024-01-30T00:53:29;8.40;1.00
2973;DHT22;1496;51.404;7.232;2024-01-30T00:55:54;8.40;1.00
2973;DHT22;1496;51.404;7.232;2024-01-30T00:58:20;8.50;1.00
2973;DHT22;1496;51.404;7.232;2024-01-30T01:00:46;8.30;1.00
2973;DHT22;1496;51.404;7.232;2024-01-30T01:03:12;8.30;1.00
2973;DHT22;1496;51.404;7.232;2024-01-30T01:05:39;8.40;1.00
2973;DHT22;1496;51.404;7.232;2024-01-30T01:08:05;8.40;1.00
2973;DHT22;1496;51.404;7.232;2024-01-30T01:10:31;8.40;1.00
2973;DHT22;1496;51.404;7.232;2024-01-30T01:12:56;8.50;1.00
2973;DHT22;1496;51.404;7.232;2024-01-30T01:15:22;8.40;1.00
2973;DHT22;1496;51.404;7.232;2024-01-30T01:17:47;8.30;1.00
2973;DHT22;1496;51.404;7.232;2024-01-30T01:20:23;8.30;1.00
2973;DHT22;1496;51.404;7.232;2024-01-30T01:22:53;8.30;1.00
2973;DHT22;1496;51.404;7.232;2024-01-30T01:25:18;8.20;1.00
2973;DHT22;1496;51.404;7.232;2024-01-30T01:27:44;8.20;1.00
2973;DHT22;1496;51.404;7.232;2024-01-30T01:30:16;8.10;1.00
2973;DHT22;1496;51.404;7.232;2024-01-30T01:32:50;8.20;1.00
2973;DHT22;1496;51.404;7.232;2024-01-30T01:35:25;8.10;1.00
2973;DHT22;1496;51.404;7.232;2024-01-30T01:37:54;8.00;1.00
2973;DHT22;1496;51.404;7.232;2024-01-30T01:40:25;8.00;1.00
2973;DHT22;1496;51.404;7.232;2024-01-30T01:42:51;8.00;1.00
2973;DHT22;1496;51.404;7.232;2024-01-30T01:45:20;8.00;1.00
2973;DHT22;1496;51.404;7.232;2024-01-30T01:47:49;8.10;1.00
2973;DHT22;1496;51.404;7.232;2024-01-30T01:50:16;8.10;1.00
2973;DHT22;1496;51.404;7.232;2024-01-30T01:52:47;8.10;1.00
2973;DHT22;1496;51.404;7.232;2024-01-30T01:55:13;8.10;1.00
2973;DHT22;1496;51.404;7.232;2024-01-30T01:57:40;8.10;1.00
2973;DHT22;1496;51.404;7.232;2024-01-30T02:00:07;8.20;1.00
2973;DHT22;1496;51.404;7.232;2024-01-30T02:02:36;8.30;1.00
2973;DHT22;1496;51.404;7.232;2024-01-30T02:05:02;8.30;1.00
2973;DHT22;1496;51.404;7.232;2024-01-30T02:07:28;8.30;1.00
2973;DHT22;1496;51.404;7.232;2024-01-30T02:09:54;8.30;1.00
2973;DHT22;1496;51.404;7.232;2024-01-30T02:12:20;8.40;1.00
2973;DHT22;1496;51.404;7.232;2024-01-30T02:14:47;8.40;1.00
2973;DHT22;1496;51.404;7.232;2024-01-30T02:17:13;8.40;1.00
2973;DHT22;1496;51.404;7.232;2024-01-30T02:19:39;8.30;1.00
2973;DHT22;1496;51.404;7.232;2024-01-30T02:22:05;8.20;1.00
2973;DHT22;1496;51.404;7.232;2024-01-30T02:24:31;8.10;1.00
2973;DHT22;1496;51.404;7.232;2024-01-30T02:26:57;8.10;1.00
2973;DHT22;1496;51.404;7.232;2024-01-30T02:29:23;8.10;1.00
2973;DHT22;1496;51.404;7.232;2024-01-30T02:31:48;8.00;1.00
2973;DHT22;1496;51.404;7.232;2024-01-30T02:34:14;8.10;1.00
2973;DHT22;1496;51.404;7.232;2024-01-30T02:36:43;8.10;1.00
2973;DHT22;1496;51.404;7.232;2024-01-30T02:39:09;8.10;1.00
2973;DHT22;1496;51.404;7.232;2024-01-30T02:41:35;8.20;1.00
2973;DHT22;1496;51.404;7.232;2024-01-30T02:44:04;8.10;1.00
2973;DHT22;1496;51.404;7.232;2024-01-30T02:46:30;8.10;1.00
2973;DHT22;1496;51.404;7.232;2024-01-30T02:48:55;8.10;1.00
2973;DHT22;1496;51.404;7.232;2024-01-30T02:51:21;8.10;1.00
2973;DHT22;1496;51.404;7.232;2024-01-30T02:53:47;8.20;1.00
2973;DHT22;1496;51.404;7.232;2024-01-30T02:56:13;8.30;1.00
2973;DHT22;1496;51.404;7.232;2024-01-30T02:58:39;8.40;1.00
2973;DHT22;1496;51.404;7.232;2024-01-30T03:01:06;8.40;1.00
2973;DHT22;1496;51.404;7.232;2024-01-30T03:03:31;8.40;1.00
2973;DHT22;1496;51.404;7.232;2024-01-30T03:05:59;8.40;1.00
2973;DHT22;1496;51.404;7.232;2024-01-30T03:08:25;8.40;1.00
2973;DHT22;1496;51.404;7.232;2024-01-30T03:10:50;8.40;1.00
2973;DHT22;1496;51.404;7.232;2024-01-30T03:13:16;8.30;1.00
2973;DHT22;1496;51.404;7.232;2024-01-30T03:15:42;8.30;1.00
2973;DHT22;1496;51.404;7.232;2024-01-30T03:18:08;8.40;1.00
2973;DHT22;1496;51.404;7.232;2024-01-30T03:20:34;8.40;1.00
2973;DHT22;1496;51.404;7.232;2024-01-30T03:23:00;8.40;1.00
2973;DHT22;1496;51.404;7.232;2024-01-30T03:25:26;8.40;1.00
2973;DHT22;1496;51.404;7.232;2024-01-30T03:27:52;8.40;1.00
2973;DHT22;1496;51.404;7.232;2024-01-30T03:30:17;8.10;1.00
2973;DHT22;1496;51.404;7.232;2024-01-30T03:32:44;8.30;1.00
2973;DHT22;1496;51.404;7.232;2024-01-30T03:35:09;8.10;1.00
2973;DHT22;1496;51.404;7.232;2024-01-30T03:37:35;8.10;1.00
2973;DHT22;1496;51.404;7.232;2024-01-30T03:40:02;8.10;1.00
2973;DHT22;1496;51.404;7.232;2024-01-30T03:42:28;8.10;1.00
2973;DHT22;1496;51.404;7.232;2024-01-30T03:44:56;8.20;1.00
2973;DHT22;1496;51.404;7.232;2024-01-30T03:47:24;8.20;1.00
2973;DHT22;1496;51.404;7.232;2024-01-30T03:49:50;8.20;1.00
2973;DHT22;1496;51.404;7.232;2024-01-30T03:52:15;8.20;1.00
2973;DHT22;1496;51.404;7.232;2024-01-30T03:54:41;8.30;1.00
2973;DHT22;1496;51.404;7.232;2024-01-30T03:57:07;8.20;1.00
2973;DHT22;1496;51.404;7.232;2024-01-30T03:59:32;8.20;1.00
2973;DHT22;1496;51.404;7.232;2024-01-30T04:01:58;8.20;1.00
2973;DHT22;1496;51.404;7.232;2024-01-30T04:04:24;8.20;1.00
2973;DHT22;1496;51.404;7.232;2024-01-30T04:06:49;8.10;1.00
2973;DHT22;1496;51.404;7.232;2024-01-30T04:09:15;8.00;1.00
2973;DHT22;1496;51.404;7.232;2024-01-30T04:11:41;8.00;1.00
2973;DHT22;1496;51.404;7.232;2024-01-30T04:14:08;8.00;1.00
2973;DHT22;1496;51.404;7.232;2024-01-30T04:16:34;8.10;1.00
2973;DHT22;1496;51.404;7.232;2024-01-30T04:19:00;8.10;1.00
2973;DHT22;1496;51.404;7.232;2024-01-30T04:21:25;8.10;1.00
2973;DHT22;1496;51.404;7.232;2024-01-30T04:23:51;8.10;1.00
2973;DHT22;1496;51.404;7.232;2024-01-30T04:26:17;8.20;1.00
2973;DHT22;1496;51.404;7.232;2024-01-30T04:28:46;8.20;1.00
2973;DHT22;1496;51.404;7.232;2024-01-30T04:31:12;8.20;1.00
2973;DHT22;1496;51.404;7.232;2024-01-30T04:33:37;8.20;1.00
2973;DHT22;1496;51.404;7.232;2024-01-30T04:36:04;8.30;1.00
2973;DHT22;1496;51.404;7.232;2024-01-30T04:38:31;8.20;1.00
2973;DHT22;1496;51.404;7.232;2024-01-30T04:40:56;8.20;1.00
2973;DHT22;1496;51.404;7.232;2024-01-30T04:43:22;8.30;1.00
2973;DHT22;1496;51.404;7.232;2024-01-30T04:45:48;8.20;1.00
2973;DHT22;1496;51.404;7.232;2024-01-30T04:48:14;8.10;1.00
2973;DHT22;1496;51.404;7.232;2024-01-30T04:50:39;8.00;1.00
2973;DHT22;1496;51.404;7.232;2024-01-30T04:53:05;7.90;1.00
2973;DHT22;1496;51.404;7.232;2024-01-30T04:55:31;7.90;1.00
2973;DHT22;1496;51.404;7.232;2024-01-30T04:57:56;7.80;1.00
2973;DHT22;1496;51.404;7.232;2024-01-30T05:00:22;7.80;1.00
2973;DHT22;1496;51.404;7.232;2024-01-30T05:02:48;7.90;1.00
2973;DHT22;1496;51.404;7.232;2024-01-30T05:05:13;7.90;1.00
2973;DHT22;1496;51.404;7.232;2024-01-30T05:07:41;7.90;1.00
2973;DHT22;1496;51.404;7.232;2024-01-30T05:10:09;7.90;1.00
2973;DHT22;1496;51.404;7.232;2024-01-30T05:12:34;7.90;1.00
2973;DHT22;1496;51.404;7.232;2024-01-30T05:15:00;7.90;1.00
2973;DHT22;1496;51.404;7.232;2024-01-30T05:17:26;8.00;1.00
2973;DHT22;1496;51.404;7.232;2024-01-30T05:19:51;8.00;1.00
2973;DHT22;1496;51.404;7.232;2024-01-30T05:22:17;8.00;1.00
2973;DHT22;1496;51.404;7.232;2024-01-30T05:24:44;8.10;1.00
2973;DHT22;1496;51.404;7.232;2024-01-30T05:27:10;8.00;1.00
2973;DHT22;1496;51.404;7.232;2024-01-30T05:29:35;8.10;1.00
2973;DHT22;1496;51.404;7.232;2024-01-30T05:32:02;8.10;1.00
2973;DHT22;1496;51.404;7.232;2024-01-30T05:34:27;8.10;1.00
2973;DHT22;1496;51.404;7.232;2024-01-30T05:36:53;8.10;1.00
2973;DHT22;1496;51.404;7.232;2024-01-30T05:39:18;8.10;1.00
2973;DHT22;1496;51.404;7.232;2024-01-30T05:41:44;8.10;1.00
2973;DHT22;1496;51.404;7.232;2024-01-30T05:44:10;8.10;1.00
2973;DHT22;1496;51.404;7.232;2024-01-30T05:46:35;8.00;1.00
2973;DHT22;1496;51.404;7.232;2024-01-30T05:49:01;8.10;1.00
2973;DHT22;1496;51.404;7.232;2024-01-30T05:51:27;8.00;1.00
2973;DHT22;1496;51.404;7.232;2024-01-30T05:53:53;7.90;1.00
2973;DHT22;1496;51.404;7.232;2024-01-30T05:56:19;7.80;1.00
2973;DHT22;1496;51.404;7.232;2024-01-30T05:58:45;7.80;1.00
2973;DHT22;1496;51.404;7.232;2024-01-30T06:01:11;7.70;1.00
2973;DHT22;1496;51.404;7.232;2024-01-30T06:03:37;7.70;1.00
2973;DHT22;1496;51.404;7.232;2024-01-30T06:06:04;7.70;1.00
2973;DHT22;1496;51.404;7.232;2024-01-30T06:08:30;7.70;1.00
2973;DHT22;1496;51.404;7.232;2024-01-30T06:10:57;7.70;1.00
2973;DHT22;1496;51.404;7.232;2024-01-30T06:13:23;7.80;1.00
2973;DHT22;1496;51.404;7.232;2024-01-30T06:15:48;7.70;1.00
2973;DHT22;1496;51.404;7.232;2024-01-30T06:18:14;7.70;1.00
2973;DHT22;1496;51.404;7.232;2024-01-30T06:20:40;7.80;1.00
2973;DHT22;1496;51.404;7.232;2024-01-30T06:23:05;7.80;1.00
2973;DHT22;1496;51.404;7.232;2024-01-30T06:25:32;7.90;1.00
2973;DHT22;1496;51.404;7.232;2024-01-30T06:27:57;8.00;1.00
2973;DHT22;1496;51.404;7.232;2024-01-30T06:30:23;8.00;1.00
2973;DHT22;1496;51.404;7.232;2024-01-30T06:32:48;8.00;1.00
2973;DHT22;1496;51.404;7.232;2024-01-30T06:35:14;8.10;1.00
2973;DHT22;1496;51.404;7.232;2024-01-30T06:37:40;8.10;1.00
2973;DHT22;1496;51.404;7.232;2024-01-30T06:40:06;8.20;1.00
2973;DHT22;1496;51.404;7.232;2024-01-30T06:42:32;8.20;1.00
2973;DHT22;1496;51.404;7.232;2024-01-30T06:44:58;8.20;1.00
2973;DHT22;1496;51.404;7.232;2024-01-30T06:47:23;8.20;1.00
2973;DHT22;1496;51.404;7.232;2024-01-30T06:49:49;8.20;1.00
2973;DHT22;1496;51.404;7.232;2024-01-30T06:52:15;8.20;1.00
2973;DHT22;1496;51.404;7.232;2024-01-30T06:54:41;8.20;1.00
2973;DHT22;1496;51.404;7.232;2024-01-30T06:57:06;8.20;1.00
2973;DHT22;1496;51.404;7.232;2024-01-30T06:59:37;8.20;1.00
2973;DHT22;1496;51.404;7.232;2024-01-30T07:02:07;8.20;1.00
2973;DHT22;1496;51.404;7.232;2024-01-30T07:04:33;8.10;1.00
2973;DHT22;1496;51.404;7.232;2024-01-30T07:06:58;8.20;1.00
2973;DHT22;1496;51.404;7.232;2024-01-30T07:09:24;8.20;1.00
2973;DHT22;1496;51.404;7.232;2024-01-30T07:11:50;8.20;1.00
2973;DHT22;1496;51.404;7.232;2024-01-30T07:14:16;8.20;1.00
2973;DHT22;1496;51.404;7.232;2024-01-30T07:16:43;8.20;1.00
2973;DHT22;1496;51.404;7.232;2024-01-30T07:19:09;8.20;1.00
2973;DHT22;1496;51.404;7.232;2024-01-30T07:21:34;8.20;1.00
2973;DHT22;1496;51.404;7.232;2024-01-30T07:24:00;8.20;1.00
2973;DHT22;1496;51.404;7.232;2024-01-30T07:26:26;8.10;1.00
2973;DHT22;1496;51.404;7.232;2024-01-30T07:28:52;8.10;1.00
2973;DHT22;1496;51.404;7.232;2024-01-30T07:31:18;8.10;1.00
2973;DHT22;1496;51.404;7.232;2024-01-30T07:33:46;8.20;1.00
2973;DHT22;1496;51.404;7.232;2024-01-30T07:36:11;8.20;1.00
2973;DHT22;1496;51.404;7.232;2024-01-30T07:38:37;8.20;1.00
2973;DHT22;1496;51.404;7.232;2024-01-30T07:41:03;8.20;1.00
2973;DHT22;1496;51.404;7.232;2024-01-30T07:43:28;8.20;1.00
2973;DHT22;1496;51.404;7.232;2024-01-30T07:45:54;8.30;1.00
2973;DHT22;1496;51.404;7.232;2024-01-30T07:48:20;8.40;1.00
2973;DHT22;1496;51.404;7.232;2024-01-30T07:50:45;8.40;1.00
2973;DHT22;1496;51.404;7.232;2024-01-30T07:53:11;8.50;1.00
2973;DHT22;1496;51.404;7.232;2024-01-30T07:55:36;8.60;1.00
2973;DHT22;1496;51.404;7.232;2024-01-30T07:58:02;8.60;1.00
2973;DHT22;1496;51.404;7.232;2024-01-30T08:00:30;8.70;1.00
2973;DHT22;1496;51.404;7.232;2024-01-30T08:02:55;8.70;1.00
2973;DHT22;1496;51.404;7.232;2024-01-30T08:05:21;8.80;1.00
2973;DHT22;1496;51.404;7.232;2024-01-30T08:07:50;8.90;1.00
2973;DHT22;1496;51.404;7.232;2024-01-30T08:10:16;9.00;1.00
2973;DHT22;1496;51.404;7.232;2024-01-30T08:12:44;9.10;1.00
2973;DHT22;1496;51.404;7.232;2024-01-30T08:15:10;9.10;1.00
2973;DHT22;1496;51.404;7.232;2024-01-30T08:17:35;9.20;1.00
2973;DHT22;1496;51.404;7.232;2024-01-30T08:20:01;9.20;1.00
2973;DHT22;1496;51.404;7.232;2024-01-30T08:22:29;9.20;1.00
2973;DHT22;1496;51.404;7.232;2024-01-30T08:24:54;9.20;1.00
2973;DHT22;1496;51.404;7.232;2024-01-30T08:27:20;9.10;1.00
2973;DHT22;1496;51.404;7.232;2024-01-30T08:29:45;9.00;1.00
2973;DHT22;1496;51.404;7.232;2024-01-30T08:32:11;9.10;1.00
2973;DHT22;1496;51.404;7.232;2024-01-30T08:34:37;9.20;1.00
2973;DHT22;1496;51.404;7.232;2024-01-30T08:37:03;9.20;1.00
2973;DHT22;1496;51.404;7.232;2024-01-30T08:39:29;9.20;1.00
2973;DHT22;1496;51.404;7.232;2024-01-30T08:41:54;9.20;1.00
2973;DHT22;1496;51.404;7.232;2024-01-30T08:44:20;9.30;1.00
2973;DHT22;1496;51.404;7.232;2024-01-30T08:46:46;9.30;1.00
2973;DHT22;1496;51.404;7.232;2024-01-30T08:49:16;9.40;1.00
2973;DHT22;1496;51.404;7.232;2024-01-30T08:51:42;9.50;1.00
2973;DHT22;1496;51.404;7.232;2024-01-30T08:54:08;9.50;1.00
2973;DHT22;1496;51.404;7.232;2024-01-30T08:56:33;9.60;1.00
2973;DHT22;1496;51.404;7.232;2024-01-30T08:58:59;9.60;1.00
2973;DHT22;1496;51.404;7.232;2024-01-30T09:01:25;9.60;1.00
2973;DHT22;1496;51.404;7.232;2024-01-30T09:03:51;9.70;1.00
2973;DHT22;1496;51.404;7.232;2024-01-30T09:06:16;9.70;1.00
2973;DHT22;1496;51.404;7.232;2024-01-30T09:08:42;9.80;1.00
2973;DHT22;1496;51.404;7.232;2024-01-30T09:11:14;9.80;1.00
2973;DHT22;1496;51.404;7.232;2024-01-30T09:13:41;9.80;1.00
2973;DHT22;1496;51.404;7.232;2024-01-30T09:16:07;9.90;1.00
2973;DHT22;1496;51.404;7.232;2024-01-30T09:18:33;9.90;1.00
2973;DHT22;1496;51.404;7.232;2024-01-30T09:20:59;9.90;1.00
2973;DHT22;1496;51.404;7.232;2024-01-30T09:23:25;9.90;1.00
2973;DHT22;1496;51.404;7.232;2024-01-30T09:25:51;10.00;1.00
2973;DHT22;1496;51.404;7.232;2024-01-30T09:28:19;9.80;1.00
2973;DHT22;1496;51.404;7.232;2024-01-30T09:30:45;9.70;1.00
2973;DHT22;1496;51.404;7.232;2024-01-30T09:33:10;9.70;1.00
2973;DHT22;1496;51.404;7.232;2024-01-30T09:35:36;9.70;1.00
2973;DHT22;1496;51.404;7.232;2024-01-30T09:38:02;9.70;1.00
2973;DHT22;1496;51.404;7.232;2024-01-30T09:40:28;9.70;1.00
2973;DHT22;1496;51.404;7.232;2024-01-30T09:42:55;9.70;1.00
2973;DHT22;1496;51.404;7.232;2024-01-30T09:45:25;9.70;1.00
2973;DHT22;1496;51.404;7.232;2024-01-30T09:47:51;9.80;1.00
2973;DHT22;1496;51.404;7.232;2024-01-30T09:50:17;9.90;1.00
2973;DHT22;1496;51.404;7.232;2024-01-30T09:52:46;9.90;1.00
2973;DHT22;1496;51.404;7.232;2024-01-30T09:55:13;10.00;1.00
2973;DHT22;1496;51.404;7.232;2024-01-30T09:57:39;10.10;1.00
2973;DHT22;1496;51.404;7.232;2024-01-30T10:00:06;10.30;1.00
2973;DHT22;1496;51.404;7.232;2024-01-30T10:02:40;10.40;1.00
2973;DHT22;1496;51.404;7.232;2024-01-30T10:05:07;10.50;1.00
2973;DHT22;1496;51.404;7.232;2024-01-30T10:07:33;10.50;1.00
2973;DHT22;1496;51.404;7.232;2024-01-30T10:09:59;10.60;1.00
2973;DHT22;1496;51.404;7.232;2024-01-30T10:12:29;10.50;1.00
2973;DHT22;1496;51.404;7.232;2024-01-30T10:14:56;10.60;1.00
2973;DHT22;1496;51.404;7.232;2024-01-30T10:17:25;10.50;1.00
2973;DHT22;1496;51.404;7.232;2024-01-30T10:19:50;10.60;1.00
2973;DHT22;1496;51.404;7.232;2024-01-30T10:22:17;10.70;1.00
2973;DHT22;1496;51.404;7.232;2024-01-30T10:24:44;10.90;1.00
2973;DHT22;1496;51.404;7.232;2024-01-30T10:27:10;11.10;1.00
2973;DHT22;1496;51.404;7.232;2024-01-30T10:29:37;11.20;1.00
2973;DHT22;1496;51.404;7.232;2024-01-30T10:32:04;11.20;1.00
2973;DHT22;1496;51.404;7.232;2024-01-30T10:34:30;11.30;1.00
2973;DHT22;1496;51.404;7.232;2024-01-30T10:37:06;11.40;1.00
2973;DHT22;1496;51.404;7.232;2024-01-30T10:39:38;11.40;1.00
2973;DHT22;1496;51.404;7.232;2024-01-30T10:42:05;11.40;1.00
2973;DHT22;1496;51.404;7.232;2024-01-30T10:44:37;11.60;1.00
2973;DHT22;1496;51.404;7.232;2024-01-30T10:47:08;11.80;1.00
2973;DHT22;1496;51.404;7.232;2024-01-30T10:49:40;11.80;1.00
2973;DHT22;1496;51.404;7.232;2024-01-30T10:52:07;11.90;1.00
2973;DHT22;1496;51.404;7.232;2024-01-30T10:54:34;12.10;1.00
2973;DHT22;1496;51.404;7.232;2024-01-30T10:57:00;12.20;1.00
2973;DHT22;1496;51.404;7.232;2024-01-30T10:59:29;12.20;1.00
2973;DHT22;1496;51.404;7.232;2024-01-30T11:01:57;12.30;1.00
2973;DHT22;1496;51.404;7.232;2024-01-30T11:04:24;12.30;1.00
2973;DHT22;1496;51.404;7.232;2024-01-30T11:06:51;12.40;1.00
2973;DHT22;1496;51.404;7.232;2024-01-30T11:09:17;12.30;1.00
2973;DHT22;1496;51.404;7.232;2024-01-30T11:11:56;12.20;1.00
2973;DHT22;1496;51.404;7.232;2024-01-30T11:14:26;12.10;1.00
2973;DHT22;1496;51.404;7.232;2024-01-30T11:16:52;12.20;1.00
2973;DHT22;1496;51.404;7.232;2024-01-30T11:19:25;12.20;1.00
2973;DHT22;1496;51.404;7.232;2024-01-30T11:21:54;12.10;1.00
2973;DHT22;1496;51.404;7.232;2024-01-30T11:24:20;12.10;1.00
2973;DHT22;1496;51.404;7.232;2024-01-30T11:27:01;12.10;1.00
2973;DHT22;1496;51.404;7.232;2024-01-30T11:29:28;12.10;1.00
2973;DHT22;1496;51.404;7.232;2024-01-30T11:31:55;12.10;1.00
2973;DHT22;1496;51.404;7.232;2024-01-30T11:34:21;12.00;1.00
2973;DHT22;1496;51.404;7.232;2024-01-30T11:36:57;12.10;1.00
2973;DHT22;1496;51.404;7.232;2024-01-30T11:39:26;12.10;1.00
2973;DHT22;1496;51.404;7.232;2024-01-30T11:41:53;12.10;1.00
2973;DHT22;1496;51.404;7.232;2024-01-30T11:44:19;12.10;1.00
2973;DHT22;1496;51.404;7.232;2024-01-30T11:46:50;12.10;1.00
2973;DHT22;1496;51.404;7.232;2024-01-30T11:49:16;12.10;1.00
2973;DHT22;1496;51.404;7.232;2024-01-30T11:51:43;12.10;1.00
2973;DHT22;1496;51.404;7.232;2024-01-30T11:54:09;12.10;1.00
2973;DHT22;1496;51.404;7.232;2024-01-30T11:56:34;12.10;1.00
2973;DHT22;1496;51.404;7.232;2024-01-30T11:59:01;12.10;1.00
2973;DHT22;1496;51.404;7.232;2024-01-30T12:01:27;12.00;1.00
2973;DHT22;1496;51.404;7.232;2024-01-30T12:03:53;12.00;1.00
2973;DHT22;1496;51.404;7.232;2024-01-30T12:06:19;12.00;1.00
2973;DHT22;1496;51.404;7.232;2024-01-30T12:08:58;12.00;1.00
2973;DHT22;1496;51.404;7.232;2024-01-30T12:11:25;12.00;1.00
2973;DHT22;1496;51.404;7.232;2024-01-30T12:13:54;12.00;1.00
2973;DHT22;1496;51.404;7.232;2024-01-30T12:16:20;12.00;1.00
2973;DHT22;1496;51.404;7.232;2024-01-30T12:18:46;12.00;1.00
2973;DHT22;1496;51.404;7.232;2024-01-30T12:21:15;11.80;1.00
2973;DHT22;1496;51.404;7.232;2024-01-30T12:23:41;11.60;1.00
2973;DHT22;1496;51.404;7.232;2024-01-30T12:26:07;11.60;1.00
2973;DHT22;1496;51.404;7.232;2024-01-30T12:28:33;11.60;1.00
2973;DHT22;1496;51.404;7.232;2024-01-30T12:31:03;11.50;1.00
2973;DHT22;1496;51.404;7.232;2024-01-30T12:33:29;11.50;1.00
2973;DHT22;1496;51.404;7.232;2024-01-30T12:36:02;11.50;1.00
2973;DHT22;1496;51.404;7.232;2024-01-30T12:38:28;11.50;1.00
2973;DHT22;1496;51.404;7.232;2024-01-30T12:40:56;11.40;1.00
2973;DHT22;1496;51.404;7.232;2024-01-30T12:43:26;11.40;1.00
2973;DHT22;1496;51.404;7.232;2024-01-30T12:45:55;11.40;1.00
2973;DHT22;1496;51.404;7.232;2024-01-30T12:48:21;11.40;1.00
2973;DHT22;1496;51.404;7.232;2024-01-30T12:50:46;11.50;1.00
2973;DHT22;1496;51.404;7.232;2024-01-30T12:53:12;11.50;1.00
2973;DHT22;1496;51.404;7.232;2024-01-30T12:55:38;11.50;1.00
2973;DHT22;1496;51.404;7.232;2024-01-30T12:58:04;11.50;1.00
2973;DHT22;1496;51.404;7.232;2024-01-30T13:00:29;11.50;1.00
2973;DHT22;1496;51.404;7.232;2024-01-30T13:02:55;11.50;1.00
2973;DHT22;1496;51.404;7.232;2024-01-30T13:05:21;11.50;1.00
2973;DHT22;1496;51.404;7.232;2024-01-30T13:07:47;11.60;1.00
2973;DHT22;1496;51.404;7.232;2024-01-30T13:10:13;11.50;1.00
2973;DHT22;1496;51.404;7.232;2024-01-30T13:12:38;11.50;1.00
2973;DHT22;1496;51.404;7.232;2024-01-30T13:15:05;11.50;1.00
2973;DHT22;1496;51.404;7.232;2024-01-30T13:17:31;11.50;1.00
2973;DHT22;1496;51.404;7.232;2024-01-30T13:19:57;11.50;1.00
2973;DHT22;1496;51.404;7.232;2024-01-30T13:22:23;11.40;1.00
2973;DHT22;1496;51.404;7.232;2024-01-30T13:24:49;11.40;1.00
2973;DHT22;1496;51.404;7.232;2024-01-30T13:27:15;11.40;1.00
2973;DHT22;1496;51.404;7.232;2024-01-30T13:29:41;11.20;1.00
2973;DHT22;1496;51.404;7.232;2024-01-30T13:32:07;11.20;1.00
2973;DHT22;1496;51.404;7.232;2024-01-30T13:34:32;11.10;1.00
2973;DHT22;1496;51.404;7.232;2024-01-30T13:36:59;11.10;1.00
2973;DHT22;1496;51.404;7.232;2024-01-30T13:39:25;11.10;1.00
2973;DHT22;1496;51.404;7.232;2024-01-30T13:41:50;11.00;1.00
2973;DHT22;1496;51.404;7.232;2024-01-30T13:44:16;10.90;1.00
2973;DHT22;1496;51.404;7.232;2024-01-30T13:46:43;10.90;1.00
2973;DHT22;1496;51.404;7.232;2024-01-30T13:49:08;10.90;1.00
2973;DHT22;1496;51.404;7.232;2024-01-30T13:51:34;10.90;1.00
2973;DHT22;1496;51.404;7.232;2024-01-30T13:54:00;10.90;1.00
2973;DHT22;1496;51.404;7.232;2024-01-30T13:56:25;11.00;1.00
2973;DHT22;1496;51.404;7.232;2024-01-30T13:58:52;11.10;1.00
2973;DHT22;1496;51.404;7.232;2024-01-30T14:01:18;11.10;1.00
2973;DHT22;1496;51.404;7.232;2024-01-30T14:03:44;11.10;1.00
2973;DHT22;1496;51.404;7.232;2024-01-30T14:06:10;11.10;1.00
2973;DHT22;1496;51.404;7.232;2024-01-30T14:08:36;11.10;1.00
2973;DHT22;1496;51.404;7.232;2024-01-30T14:11:01;11.10;1.00
2973;DHT22;1496;51.404;7.232;2024-01-30T14:13:27;11.10;1.00
2973;DHT22;1496;51.404;7.232;2024-01-30T14:15:53;11.10;1.00
2973;DHT22;1496;51.404;7.232;2024-01-30T14:18:19;11.20;1.00
2973;DHT22;1496;51.404;7.232;2024-01-30T14:20:46;11.10;1.00
2973;DHT22;1496;51.404;7.232;2024-01-30T14:23:16;11.00;1.00
2973;DHT22;1496;51.404;7.232;2024-01-30T14:25:42;11.10;1.00
2973;DHT22;1496;51.404;7.232;2024-01-30T14:28:08;11.00;1.00
2973;DHT22;1496;51.404;7.232;2024-01-30T14:30:33;10.90;1.00
2973;DHT22;1496;51.404;7.232;2024-01-30T14:32:59;11.00;1.00
2973;DHT22;1496;51.404;7.232;2024-01-30T14:35:24;11.00;1.00
2973;DHT22;1496;51.404;7.232;2024-01-30T14:37:50;11.00;1.00
2973;DHT22;1496;51.404;7.232;2024-01-30T14:40:17;11.00;1.00
2973;DHT22;1496;51.404;7.232;2024-01-30T14:42:43;11.00;1.00
2973;DHT22;1496;51.404;7.232;2024-01-30T14:45:09;11.00;1.00
2973;DHT22;1496;51.404;7.232;2024-01-30T14:47:35;11.00;1.00
2973;DHT22;1496;51.404;7.232;2024-01-30T14:50:01;11.10;1.00
2973;DHT22;1496;51.404;7.232;2024-01-30T14:52:27;11.10;1.00
2973;DHT22;1496;51.404;7.232;2024-01-30T14:54:53;11.20;1.00
2973;DHT22;1496;51.404;7.232;2024-01-30T14:57:18;11.20;1.00
2973;DHT22;1496;51.404;7.232;2024-01-30T14:59:44;11.20;1.00
2973;DHT22;1496;51.404;7.232;2024-01-30T15:02:10;11.20;1.00
2973;DHT22;1496;51.404;7.232;2024-01-30T15:04:36;11.20;1.00
2973;DHT22;1496;51.404;7.232;2024-01-30T15:07:02;11.20;1.00
2973;DHT22;1496;51.404;7.232;2024-01-30T15:09:28;11.20;1.00
2973;DHT22;1496;51.404;7.232;2024-01-30T15:11:54;11.20;1.00
2973;DHT22;1496;51.404;7.232;2024-01-30T15:14:19;11.10;1.00
2973;DHT22;1496;51.404;7.232;2024-01-30T15:16:45;11.20;1.00
2973;DHT22;1496;51.404;7.232;2024-01-30T15:19:11;11.10;1.00
2973;DHT22;1496;51.404;7.232;2024-01-30T15:21:36;11.00;1.00
2973;DHT22;1496;51.404;7.232;2024-01-30T15:24:02;11.00;1.00
2973;DHT22;1496;51.404;7.232;2024-01-30T15:26:28;11.00;1.00
2973;DHT22;1496;51.404;7.232;2024-01-30T15:28:55;10.90;1.00
2973;DHT22;1496;51.404;7.232;2024-01-30T15:31:20;10.80;1.00
2973;DHT22;1496;51.404;7.232;2024-01-30T15:33:47;10.80;1.00
2973;DHT22;1496;51.404;7.232;2024-01-30T15:36:13;10.70;1.00
2973;DHT22;1496;51.404;7.232;2024-01-30T15:38:39;10.80;1.00
2973;DHT22;1496;51.404;7.232;2024-01-30T15:41:05;10.60;1.00
2973;DHT22;1496;51.404;7.232;2024-01-30T15:43:31;10.70;1.00
2973;DHT22;1496;51.404;7.232;2024-01-30T15:45:58;10.70;1.00
2973;DHT22;1496;51.404;7.232;2024-01-30T15:48:24;10.70;1.00
2973;DHT22;1496;51.404;7.232;2024-01-30T15:50:50;10.70;1.00
2973;DHT22;1496;51.404;7.232;2024-01-30T15:53:16;10.70;1.00
2973;DHT22;1496;51.404;7.232;2024-01-30T15:55:41;10.70;1.00
2973;DHT22;1496;51.404;7.232;2024-01-30T15:58:07;10.60;1.00
2973;DHT22;1496;51.404;7.232;2024-01-30T16:00:33;10.70;1.00
2973;DHT22;1496;51.404;7.232;2024-01-30T16:02:59;10.80;1.00
2973;DHT22;1496;51.404;7.232;2024-01-30T16:05:25;10.70;1.00
2973;DHT22;1496;51.404;7.232;2024-01-30T16:07:51;10.80;1.00
2973;DHT22;1496;51.404;7.232;2024-01-30T16:10:16;10.70;1.00
2973;DHT22;1496;51.404;7.232;2024-01-30T16:12:46;10.70;1.00
2973;DHT22;1496;51.404;7.232;2024-01-30T16:15:15;10.70;1.00
2973;DHT22;1496;51.404;7.232;2024-01-30T16:17:42;10.70;1.00
2973;DHT22;1496;51.404;7.232;2024-01-30T16:20:08;10.60;1.00
2973;DHT22;1496;51.404;7.232;2024-01-30T16:22:34;10.60;1.00